sensor_id;sensor_type;location;lat;lon;timestamp;temperature;humidity
32107;DHT22;18622;51.998;10.440;2022-08-03T02:19:24;19.10;81.70
32107;DHT22;18622;51.998;10.440;2022-08-03T02:21:53;19.10;81.60
32107;DHT22;18622;51.998;10.440;2022-08-03T02:24:21;19.20;81.60
32107;DHT22;18622;51.998;10.440;2022-08-03T02:26:51;19.20;81.50
32107;DHT22;18622;51.998;10.440;2022-08-03T02:29:23;19.20;81.50
32107;DHT22;18622;51.998;10.440;2022-08-03T02:31:50;19.20;81.30
32107;DHT22;18622;51.998;10.440;2022-08-03T02:34:20;19.20;81.30
32107;DHT22;18622;51.998;10.440;2022-08-03T02:36:51;19.20;81.30
32107;DHT22;18622;51.998;10.440;2022-08-03T02:39:21;19.20;81.20
32107;DHT22;18622;51.998;10.440;2022-08-03T02:41:55;19.20;81.20
32107;DHT22;18622;51.998;10.440;2022-08-03T02:44:26;19.20;81.30
32107;DHT22;18622;51.998;10.440;2022-08-03T02:47:00;19.20;81.40
32107;DHT22;18622;51.998;10.440;2022-08-03T02:49:29;19.20;81.40
32107;DHT22;18622;51.998;10.440;2022-08-03T02:51:58;19.20;81.50
32107;DHT22;18622;51.998;10.440;2022-08-03T02:54:27;19.20;81.40
32107;DHT22;18622;51.998;10.440;2022-08-03T02:56:56;19.20;81.50
32107;DHT22;18622;51.998;10.440;2022-08-03T02:59:24;19.10;81.60
32107;DHT22;18622;51.998;10.440;2022-08-03T03:30:33;18.80;82.70
32107;DHT22;18622;51.998;10.440;2022-08-03T03:33:01;18.80;82.80
32107;DHT22;18622;51.998;10.440;2022-08-03T03:35:29;18.70;82.90
32107;DHT22;18622;51.998;10.440;2022-08-03T03:37:57;18.70;83.10
32107;DHT22;18622;51.998;10.440;2022-08-03T03:40:24;18.70;83.20
32107;DHT22;18622;51.998;10.440;2022-08-03T03:42:53;18.70;83.40
32107;DHT22;18622;51.998;10.440;2022-08-03T03:45:21;18.60;83.40
32107;DHT22;18622;51.998;10.440;2022-08-03T03:47:50;18.60;83.60
32107;DHT22;18622;51.998;10.440;2022-08-03T03:50:18;18.60;83.70
32107;DHT22;18622;51.998;10.440;2022-08-03T03:52:45;18.60;83.90
32107;DHT22;18622;51.998;10.440;2022-08-03T03:55:19;18.60;84.10
32107;DHT22;18622;51.998;10.440;2022-08-03T03:57:47;18.50;84.10
32107;DHT22;18622;51.998;10.440;2022-08-03T04:00:15;18.60;84.20
32107;DHT22;18622;51.998;10.440;2022-08-03T04:02:44;18.50;84.20
32107;DHT22;18622;51.998;10.440;2022-08-03T04:05:13;18.50;84.40
32107;DHT22;18622;51.998;10.440;2022-08-03T04:08:02;18.50;84.50
32107;DHT22;18622;51.998;10.440;2022-08-03T04:11:33;18.50;84.50
32107;DHT22;18622;51.998;10.440;2022-08-03T04:13:37;18.50;84.50
32107;DHT22;18622;51.998;10.440;2022-08-03T04:16:07;18.60;84.60
32107;DHT22;18622;51.998;10.440;2022-08-03T04:18:39;18.60;84.60
32107;DHT22;18622;51.998;10.440;2022-08-03T04:21:12;18.60;84.50
32107;DHT22;18622;51.998;10.440;2022-08-03T04:23:43;18.70;84.50
32107;DHT22;18622;51.998;10.440;2022-08-03T04:26:14;18.70;84.40
32107;DHT22;18622;51.998;10.440;2022-08-03T04:28:44;18.80;84.30
32107;DHT22;18622;51.998;10.440;2022-08-03T04:31:14;18.80;84.10
32107;DHT22;18622;51.998;10.440;2022-08-03T04:33:43;18.90;84.20
32107;DHT22;18622;51.998;10.440;2022-08-03T04:36:14;19.00;84.00
32107;DHT22;18622;51.998;10.440;2022-08-03T04:38:59;19.00;83.80
32107;DHT22;18622;51.998;10.440;2022-08-03T04:41:30;19.10;83.60
32107;DHT22;18622;51.998;10.440;2022-08-03T04:43:59;19.30;83.20
32107;DHT22;18622;51.998;10.440;2022-08-03T04:46:30;19.40;82.60
32107;DHT22;18622;51.998;10.440;2022-08-03T04:48:58;19.50;82.10
32107;DHT22;18622;51.998;10.440;2022-08-03T04:51:26;19.60;81.70
32107;DHT22;18622;51.998;10.440;2022-08-03T04:53:54;19.80;81.00
32107;DHT22;18622;51.998;10.440;2022-08-03T04:56:22;20.00;80.00
32107;DHT22;18622;51.998;10.440;2022-08-03T04:58:50;20.30;79.00
32107;DHT22;18622;51.998;10.440;2022-08-03T05:01:18;20.50;78.50
32107;DHT22;18622;51.998;10.440;2022-08-03T05:03:46;20.80;76.90
32107;DHT22;18622;51.998;10.440;2022-08-03T05:06:14;21.00;75.90
32107;DHT22;18622;51.998;10.440;2022-08-03T05:08:41;21.30;74.70
32107;DHT22;18622;51.998;10.440;2022-08-03T05:11:09;21.50;73.90
32107;DHT22;18622;51.998;10.440;2022-08-03T05:13:37;21.80;71.60
32107;DHT22;18622;51.998;10.440;2022-08-03T05:16:05;22.10;71.20
32107;DHT22;18622;51.998;10.440;2022-08-03T05:18:33;22.40;70.70
32107;DHT22;18622;51.998;10.440;2022-08-03T05:21:01;22.60;69.80
32107;DHT22;18622;51.998;10.440;2022-08-03T05:23:29;22.80;68.80
32107;DHT22;18622;51.998;10.440;2022-08-03T05:25:57;23.00;67.70
32107;DHT22;18622;51.998;10.440;2022-08-03T05:28:25;23.10;67.50
32107;DHT22;18622;51.998;10.440;2022-08-03T09:04:43;36.30;34.60
32107;DHT22;18622;51.998;10.440;2022-08-03T09:07:11;36.50;34.00
32107;DHT22;18622;51.998;10.440;2022-08-03T09:09:38;36.60;33.80
32107;DHT22;18622;51.998;10.440;2022-08-03T09:12:07;36.50;33.70
32107;DHT22;18622;51.998;10.440;2022-08-03T09:14:35;36.70;33.40
32107;DHT22;18622;51.998;10.440;2022-08-03T09:17:03;36.80;33.90
32107;DHT22;18622;51.998;10.440;2022-08-03T09:19:33;36.80;33.50
32107;DHT22;18622;51.998;10.440;2022-08-03T09:22:14;36.90;32.90
32107;DHT22;18622;51.998;10.440;2022-08-03T09:24:54;36.80;32.90
32107;DHT22;18622;51.998;10.440;2022-08-03T09:27:22;36.90;33.60
32107;DHT22;18622;51.998;10.440;2022-08-03T09:29:51;37.00;33.90
32107;DHT22;18622;51.998;10.440;2022-08-03T09:32:23;37.30;32.80
32107;DHT22;18622;51.998;10.440;2022-08-03T09:34:52;37.40;32.50
32107;DHT22;18622;51.998;10.440;2022-08-03T09:37:20;37.30;32.60
32107;DHT22;18622;51.998;10.440;2022-08-03T09:39:49;37.30;33.70
32107;DHT22;18622;51.998;10.440;2022-08-03T09:42:18;37.50;32.40
32107;DHT22;18622;51.998;10.440;2022-08-03T09:44:49;37.40;32.60
32107;DHT22;18622;51.998;10.440;2022-08-03T09:47:33;37.30;32.60
32107;DHT22;18622;51.998;10.440;2022-08-03T09:50:05;37.40;32.70
32107;DHT22;18622;51.998;10.440;2022-08-03T09:52:39;37.50;32.90
32107;DHT22;18622;51.998;10.440;2022-08-03T09:55:11;37.60;32.60
32107;DHT22;18622;51.998;10.440;2022-08-03T09:57:40;37.70;33.00
32107;DHT22;18622;51.998;10.440;2022-08-03T10:00:14;38.00;32.40
32107;DHT22;18622;51.998;10.440;2022-08-03T10:02:43;38.20;32.40
32107;DHT22;18622;51.998;10.440;2022-08-03T10:05:12;38.30;32.10
32107;DHT22;18622;51.998;10.440;2022-08-03T10:07:45;38.50;31.70
32107;DHT22;18622;51.998;10.440;2022-08-03T10:10:13;38.50;31.40
32107;DHT22;18622;51.998;10.440;2022-08-03T10:12:42;38.30;32.20
32107;DHT22;18622;51.998;10.440;2022-08-03T10:15:10;38.20;31.80
32107;DHT22;18622;51.998;10.440;2022-08-03T10:17:38;38.20;32.40
32107;DHT22;18622;51.998;10.440;2022-08-03T10:20:08;38.30;31.90
32107;DHT22;18622;51.998;10.440;2022-08-03T10:22:37;38.30;31.60
32107;DHT22;18622;51.998;10.440;2022-08-03T10:25:14;38.30;31.50
32107;DHT22;18622;51.998;10.440;2022-08-03T10:27:41;38.40;31.60
32107;DHT22;18622;51.998;10.440;2022-08-03T10:30:10;38.50;31.70
32107;DHT22;18622;51.998;10.440;2022-08-03T10:35:19;38.70;32.10
32107;DHT22;18622;51.998;10.440;2022-08-03T10:40:23;39.20;31.20
32107;DHT22;18622;51.998;10.440;2022-08-03T10:42:54;39.40;30.60
32107;DHT22;18622;51.998;10.440;2022-08-03T10:45:25;39.40;30.80
32107;DHT22;18622;51.998;10.440;2022-08-03T10:47:54;39.50;30.90
32107;DHT22;18622;51.998;10.440;2022-08-03T10:50:23;39.70;30.70
32107;DHT22;18622;51.998;10.440;2022-08-03T10:53:00;40.00;30.80
32107;DHT22;18622;51.998;10.440;2022-08-03T10:55:38;40.30;30.10
32107;DHT22;18622;51.998;10.440;2022-08-03T15:03:46;43.90;27.20
32107;DHT22;18622;51.998;10.440;2022-08-03T15:06:14;44.40;26.70
32107;DHT22;18622;51.998;10.440;2022-08-03T15:08:42;45.00;26.70
32107;DHT22;18622;51.998;10.440;2022-08-03T15:11:09;45.20;26.80
32107;DHT22;18622;51.998;10.440;2022-08-03T15:13:37;45.20;26.70
32107;DHT22;18622;51.998;10.440;2022-08-03T15:16:05;44.70;26.50
32107;DHT22;18622;51.998;10.440;2022-08-03T15:18:34;44.30;26.90
32107;DHT22;18622;51.998;10.440;2022-08-03T15:21:02;44.10;27.10
32107;DHT22;18622;51.998;10.440;2022-08-03T15:23:29;43.80;27.20
32107;DHT22;18622;51.998;10.440;2022-08-03T15:25:57;43.80;27.30
32107;DHT22;18622;51.998;10.440;2022-08-03T15:28:25;43.60;27.30
32107;DHT22;18622;51.998;10.440;2022-08-03T15:30:53;43.30;27.90
32107;DHT22;18622;51.998;10.440;2022-08-03T15:33:21;42.70;27.60
32107;DHT22;18622;51.998;10.440;2022-08-03T15:35:48;42.20;27.80
32107;DHT22;18622;51.998;10.440;2022-08-03T15:38:16;41.70;28.20
32107;DHT22;18622;51.998;10.440;2022-08-03T15:40:44;41.60;28.40
32107;DHT22;18622;51.998;10.440;2022-08-03T15:43:11;41.60;28.20
32107;DHT22;18622;51.998;10.440;2022-08-03T15:45:39;41.60;28.20
32107;DHT22;18622;51.998;10.440;2022-08-03T15:48:08;41.40;28.00
32107;DHT22;18622;51.998;10.440;2022-08-03T15:50:35;41.00;28.30
32107;DHT22;18622;51.998;10.440;2022-08-03T15:53:03;40.60;28.50
32107;DHT22;18622;51.998;10.440;2022-08-03T15:55:31;40.20;28.40
32107;DHT22;18622;51.998;10.440;2022-08-03T15:57:59;39.90;28.90
32107;DHT22;18622;51.998;10.440;2022-08-03T16:00:26;39.80;29.10
32107;DHT22;18622;51.998;10.440;2022-08-03T16:02:55;39.60;29.10
32107;DHT22;18622;51.998;10.440;2022-08-03T16:05:24;39.50;29.40
32107;DHT22;18622;51.998;10.440;2022-08-03T16:07:52;39.30;29.40
32107;DHT22;18622;51.998;10.440;2022-08-03T16:10:20;39.30;29.60
32107;DHT22;18622;51.998;10.440;2022-08-03T16:12:48;39.40;29.50
32107;DHT22;18622;51.998;10.440;2022-08-03T16:15:16;39.80;29.90
32107;DHT22;18622;51.998;10.440;2022-08-03T16:17:44;40.40;29.30
32107;DHT22;18622;51.998;10.440;2022-08-03T16:20:12;41.00;29.00
32107;DHT22;18622;51.998;10.440;2022-08-03T16:22:47;41.40;28.80
32107;DHT22;18622;51.998;10.440;2022-08-03T16:25:15;41.60;28.60
32107;DHT22;18622;51.998;10.440;2022-08-03T16:27:43;41.60;28.40
32107;DHT22;18622;51.998;10.440;2022-08-03T16:30:12;41.30;28.80
32107;DHT22;18622;51.998;10.440;2022-08-03T16:32:44;40.80;28.60
32107;DHT22;18622;51.998;10.440;2022-08-03T16:35:12;40.10;28.90
32107;DHT22;18622;51.998;10.440;2022-08-03T16:37:40;39.90;29.40
32107;DHT22;18622;51.998;10.440;2022-08-03T16:40:10;40.00;29.10
32107;DHT22;18622;51.998;10.440;2022-08-03T16:42:38;39.80;29.30
32107;DHT22;18622;51.998;10.440;2022-08-03T16:45:07;39.40;29.90
32107;DHT22;18622;51.998;10.440;2022-08-03T16:47:34;39.00;29.80
32107;DHT22;18622;51.998;10.440;2022-08-03T16:50:03;38.50;30.40
32107;DHT22;18622;51.998;10.440;2022-08-03T16:52:31;37.80;30.90
32107;DHT22;18622;51.998;10.440;2022-08-03T16:54:59;37.20;31.30
32107;DHT22;18622;51.998;10.440;2022-08-03T16:57:27;36.60;31.70
32107;DHT22;18622;51.998;10.440;2022-08-03T16:59:55;36.10;32.80
32107;DHT22;18622;51.998;10.440;2022-08-03T17:02:25;35.70;34.30
32107;DHT22;18622;51.998;10.440;2022-08-03T17:04:54;35.30;35.70
32107;DHT22;18622;51.998;10.440;2022-08-03T17:07:23;34.80;37.40
32107;DHT22;18622;51.998;10.440;2022-08-03T17:09:51;34.40;38.30
32107;DHT22;18622;51.998;10.440;2022-08-03T17:12:19;34.00;39.20
32107;DHT22;18622;51.998;10.440;2022-08-03T17:14:47;33.60;40.10
32107;DHT22;18622;51.998;10.440;2022-08-03T17:17:25;33.30;40.90
32107;DHT22;18622;51.998;10.440;2022-08-03T17:19:52;32.90;41.30
32107;DHT22;18622;51.998;10.440;2022-08-03T17:22:23;32.70;41.70
32107;DHT22;18622;51.998;10.440;2022-08-03T17:24:52;32.40;41.80
32107;DHT22;18622;51.998;10.440;2022-08-03T17:27:24;32.20;42.30
32107;DHT22;18622;51.998;10.440;2022-08-03T17:30:04;32.00;42.60
32107;DHT22;18622;51.998;10.440;2022-08-03T17:32:23;31.70;42.80
32107;DHT22;18622;51.998;10.440;2022-08-03T17:34:51;31.50;42.90
32107;DHT22;18622;51.998;10.440;2022-08-03T17:37:20;31.30;43.20
32107;DHT22;18622;51.998;10.440;2022-08-03T17:39:50;31.10;43.70
32107;DHT22;18622;51.998;10.440;2022-08-03T17:42:17;30.90;44.00
32107;DHT22;18622;51.998;10.440;2022-08-03T17:44:46;30.70;44.40
32107;DHT22;18622;51.998;10.440;2022-08-03T17:47:14;30.50;45.00
32107;DHT22;18622;51.998;10.440;2022-08-03T17:49:42;30.40;45.50
32107;DHT22;18622;51.998;10.440;2022-08-03T17:52:32;30.20;45.50
32107;DHT22;18622;51.998;10.440;2022-08-03T17:55:06;30.10;45.60
32107;DHT22;18622;51.998;10.440;2022-08-03T17:57:48;29.90;46.00
32107;DHT22;18622;51.998;10.440;2022-08-03T18:00:17;29.80;46.40
32107;DHT22;18622;51.998;10.440;2022-08-03T18:03:20;29.60;46.80
32107;DHT22;18622;51.998;10.440;2022-08-03T18:05:51;29.40;47.10
32107;DHT22;18622;51.998;10.440;2022-08-03T18:08:26;29.20;47.20
32107;DHT22;18622;51.998;10.440;2022-08-03T18:11:00;29.00;47.60
32107;DHT22;18622;51.998;10.440;2022-08-03T18:13:30;28.90;48.30
32107;DHT22;18622;51.998;10.440;2022-08-03T18:16:02;28.70;48.80
32107;DHT22;18622;51.998;10.440;2022-08-03T18:18:39;28.50;49.00
32107;DHT22;18622;51.998;10.440;2022-08-03T18:21:08;28.40;49.40
32107;DHT22;18622;51.998;10.440;2022-08-03T18:23:39;28.20;49.60
32107;DHT22;18622;51.998;10.440;2022-08-03T18:26:09;28.00;49.40
32107;DHT22;18622;51.998;10.440;2022-08-03T18:28:37;27.80;49.30
32107;DHT22;18622;51.998;10.440;2022-08-03T18:31:06;27.70;49.40
32107;DHT22;18622;51.998;10.440;2022-08-03T18:33:38;27.60;49.60
32107;DHT22;18622;51.998;10.440;2022-08-03T18:36:08;27.50;49.70
32107;DHT22;18622;51.998;10.440;2022-08-03T18:38:40;27.40;49.90
32107;DHT22;18622;51.998;10.440;2022-08-03T18:41:09;27.30;50.50
32107;DHT22;18622;51.998;10.440;2022-08-03T18:43:42;27.20;50.50
32107;DHT22;18622;51.998;10.440;2022-08-03T18:48:53;27.00;50.90
32107;DHT22;18622;51.998;10.440;2022-08-03T18:51:22;26.80;51.40
32107;DHT22;18622;51.998;10.440;2022-08-03T18:53:57;26.60;51.60
32107;DHT22;18622;51.998;10.440;2022-08-03T18:56:44;26.50;51.90
32107;DHT22;18622;51.998;10.440;2022-08-03T18:59:25;26.40;52.30
32107;DHT22;18622;51.998;10.440;2022-08-03T19:01:53;26.30;52.30
32107;DHT22;18622;51.998;10.440;2022-08-03T19:07:05;26.10;52.40
32107;DHT22;18622;51.998;10.440;2022-08-03T19:09:48;26.00;52.80
32107;DHT22;18622;51.998;10.440;2022-08-03T19:12:23;25.90;52.90
32107;DHT22;18622;51.998;10.440;2022-08-03T19:14:55;25.80;53.80
32107;DHT22;18622;51.998;10.440;2022-08-03T19:17:24;25.70;54.40
32107;DHT22;18622;51.998;10.440;2022-08-03T19:19:53;25.50;54.30
32107;DHT22;18622;51.998;10.440;2022-08-03T19:22:23;25.40;55.20
32107;DHT22;18622;51.998;10.440;2022-08-03T19:24:53;25.30;55.50
32107;DHT22;18622;51.998;10.440;2022-08-03T19:27:24;25.20;55.70
32107;DHT22;18622;51.998;10.440;2022-08-03T19:29:52;25.00;55.90
32107;DHT22;18622;51.998;10.440;2022-08-03T19:32:21;25.00;55.50
32107;DHT22;18622;51.998;10.440;2022-08-03T19:34:50;24.80;55.60
32107;DHT22;18622;51.998;10.440;2022-08-03T19:37:17;24.70;56.10
32107;DHT22;18622;51.998;10.440;2022-08-03T19:39:46;24.60;56.30
32107;DHT22;18622;51.998;10.440;2022-08-03T19:42:18;24.60;56.50
32107;DHT22;18622;51.998;10.440;2022-08-03T19:44:49;24.40;56.40
32107;DHT22;18622;51.998;10.440;2022-08-03T19:47:42;24.40;56.40
32107;DHT22;18622;51.998;10.440;2022-08-03T19:50:08;24.40;56.60
32107;DHT22;18622;51.998;10.440;2022-08-03T19:52:38;24.40;56.70
32107;DHT22;18622;51.998;10.440;2022-08-03T19:55:09;24.30;57.30
32107;DHT22;18622;51.998;10.440;2022-08-03T19:57:37;24.30;57.50
32107;DHT22;18622;51.998;10.440;2022-08-03T20:00:09;24.30;57.70
32107;DHT22;18622;51.998;10.440;2022-08-03T20:02:40;24.20;57.90
32107;DHT22;18622;51.998;10.440;2022-08-03T20:05:08;24.10;57.90
32107;DHT22;18622;51.998;10.440;2022-08-03T20:07:36;24.10;58.20
32107;DHT22;18622;51.998;10.440;2022-08-03T20:10:05;24.00;58.30
32107;DHT22;18622;51.998;10.440;2022-08-03T20:12:34;24.00;58.20
32107;DHT22;18622;51.998;10.440;2022-08-03T20:15:04;24.00;58.90
32107;DHT22;18622;51.998;10.440;2022-08-03T20:17:32;24.00;59.00
32107;DHT22;18622;51.998;10.440;2022-08-03T20:20:00;23.90;59.10
32107;DHT22;18622;51.998;10.440;2022-08-03T20:22:30;23.90;59.00
32107;DHT22;18622;51.998;10.440;2022-08-03T20:25:02;23.80;59.20
32107;DHT22;18622;51.998;10.440;2022-08-03T20:27:33;23.80;59.40
32107;DHT22;18622;51.998;10.440;2022-08-03T20:30:01;23.70;59.70
32107;DHT22;18622;51.998;10.440;2022-08-03T20:32:28;23.70;59.80
32107;DHT22;18622;51.998;10.440;2022-08-03T20:34:56;23.60;60.10
32107;DHT22;18622;51.998;10.440;2022-08-03T20:37:24;23.60;60.10
32107;DHT22;18622;51.998;10.440;2022-08-03T20:39:52;23.60;60.30
32107;DHT22;18622;51.998;10.440;2022-08-03T20:42:20;23.60;60.40
32107;DHT22;18622;51.998;10.440;2022-08-03T20:44:48;23.60;60.30
32107;DHT22;18622;51.998;10.440;2022-08-03T20:47:16;23.60;60.50
32107;DHT22;18622;51.998;10.440;2022-08-03T20:49:44;23.60;60.80
32107;DHT22;18622;51.998;10.440;2022-08-03T20:52:12;23.60;60.50
32107;DHT22;18622;51.998;10.440;2022-08-03T20:54:40;23.60;60.40
32107;DHT22;18622;51.998;10.440;2022-08-03T20:57:08;23.60;60.40
32107;DHT22;18622;51.998;10.440;2022-08-03T20:59:36;23.60;60.40
